createdAt,value
2019-04-23T00:02:23.274Z,49.71
2019-04-23T00:04:53.059Z,50.53
2019-04-23T00:07:37.189Z,50.49
2019-04-23T00:10:03.440Z,50.17
2019-04-23T00:12:40.496Z,49.93
2019-04-23T00:17:38.970Z,49.90
2019-04-23T00:22:39.843Z,50.26
2019-04-23T00:25:38.027Z,50.39
2019-04-23T00:27:50.072Z,50.07
2019-04-23T00:30:24.334Z,50.08
2019-04-23T00:32:51.622Z,50.37
2019-04-23T00:35:23.196Z,50.57
2019-04-23T00:37:51.462Z,50.71
2019-04-23T00:40:25.941Z,50.65
2019-04-23T00:42:53.315Z,50.96
2019-04-23T00:45:32.978Z,51.09
2019-04-23T00:47:54.973Z,51.26
2019-04-23T00:53:19.429Z,51.40
2019-04-23T00:55:33.074Z,51.15
2019-04-23T00:58:08.585Z,51.52
2019-04-23T01:00:42.402Z,51.33
2019-04-23T01:03:15.419Z,51.88
2019-04-23T01:08:13.514Z,51.37
2019-04-23T01:10:52.548Z,51.45
2019-04-23T01:13:26.074Z,50.98
2019-04-23T01:15:55.492Z,51.53
2019-04-23T01:18:38.167Z,51.77
2019-04-23T01:20:53.753Z,51.25
2019-04-23T01:23:21.924Z,50.94
2019-04-23T01:26:00.295Z,50.90
2019-04-23T01:28:49.727Z,51.15
2019-04-23T01:34:04.639Z,51.48
2019-04-23T01:36:34.437Z,51.63
2019-04-23T01:38:56.029Z,51.15
2019-04-23T01:41:26.978Z,51.31
2019-04-23T01:43:53.538Z,51.09
2019-04-23T01:46:21.772Z,51.19
2019-04-23T01:49:01.646Z,51.42
2019-04-23T01:51:26.493Z,51.49
2019-04-23T01:53:56.694Z,51.46
2019-04-23T01:56:30.707Z,52.13
2019-04-23T02:01:39.881Z,52.08
2019-04-23T02:04:03.665Z,51.93
2019-04-23T02:06:36.795Z,51.39
2019-04-23T02:09:05.022Z,51.70
2019-04-23T02:11:37.794Z,51.59
2019-04-23T02:14:26.773Z,52.98
2019-04-23T02:16:40.786Z,53.24
2019-04-23T02:19:17.013Z,53.88
2019-04-23T02:21:47.601Z,54.35
2019-04-23T02:24:18.238Z,53.86
2019-04-23T02:26:48.690Z,54.11
2019-04-23T02:29:29.886Z,54.84
2019-04-23T02:39:49.833Z,56.56
2019-04-23T02:44:24.173Z,53.95
2019-04-23T02:47:12.599Z,54.40
2019-04-23T02:49:44.327Z,54.65
2019-04-23T02:52:08.869Z,54.51
2019-04-23T02:54:46.437Z,54.80
2019-04-23T02:57:08.757Z,54.92
2019-04-23T03:02:37.373Z,55.24
2019-04-23T03:04:50.026Z,55.14
2019-04-23T03:07:33.279Z,55.34
2019-04-23T03:09:56.433Z,54.39
2019-04-23T03:12:43.366Z,54.08
2019-04-23T03:14:58.856Z,54.40
2019-04-23T03:17:52.313Z,54.30
2019-04-23T03:20:21.821Z,54.47
2019-04-23T03:25:26.198Z,54.46
2019-04-23T03:27:56.223Z,54.21
2019-04-23T03:31:57.743Z,53.80
2019-04-23T03:38:45.738Z,55.34
2019-04-23T03:41:17.176Z,54.86
2019-04-23T03:46:12.074Z,55.35
2019-04-23T03:48:35.731Z,54.05
2019-04-23T03:50:53.186Z,54.47
2019-04-23T03:53:52.295Z,54.19
2019-04-23T03:56:17.819Z,55.45
2019-04-23T03:58:39.424Z,54.23
2019-04-23T04:01:17.688Z,54.46
2019-04-23T04:06:26.865Z,54.43
2019-04-23T04:08:50.713Z,53.30
2019-04-23T04:11:33.740Z,53.55
2019-04-23T04:19:19.335Z,53.42
2019-04-23T04:21:39.768Z,53.32
2019-04-23T04:26:51.682Z,53.44
2019-04-23T04:29:20.868Z,53.52
2019-04-23T04:34:50.091Z,53.31
2019-04-23T04:37:18.459Z,52.80
2019-04-23T04:39:37.623Z,53.22
2019-04-23T04:45:30.407Z,54.20
2019-04-23T04:46:59.275Z,52.71
2019-04-23T04:49:44.105Z,51.96
2019-04-23T04:52:34.275Z,52.33
2019-04-23T04:54:24.594Z,52.99
2019-04-23T04:57:20.837Z,51.62
2019-04-23T05:02:28.410Z,50.11
2019-04-23T05:07:27.886Z,48.68
2019-04-23T05:12:36.061Z,48.23
2019-04-23T05:15:00.789Z,46.77
2019-04-23T05:17:54.056Z,47.94
2019-04-23T05:20:14.631Z,47.17
2019-04-23T05:22:52.631Z,46.79
2019-04-23T05:25:12.403Z,48.33
2019-04-23T05:28:24.980Z,48.02
2019-04-23T05:30:29.789Z,48.17
2019-04-23T05:33:02.705Z,48.67
2019-04-23T05:35:41.337Z,48.30
2019-04-23T05:38:22.690Z,48.49
2019-04-23T05:40:45.347Z,48.83
2019-04-23T05:42:58.759Z,48.31
2019-04-23T05:45:30.038Z,48.24
2019-04-23T05:48:09.879Z,48.91
2019-04-23T05:50:44.419Z,48.52
2019-04-23T05:53:05.599Z,47.97
2019-04-23T05:55:36.826Z,47.89
2019-04-23T05:58:08.859Z,47.90
2019-04-23T06:00:45.811Z,48.04
2019-04-23T06:05:49.806Z,47.33
2019-04-23T06:08:18.480Z,47.05
2019-04-23T06:10:47.496Z,48.34
2019-04-23T06:13:18.655Z,48.44
2019-04-23T06:16:12.292Z,47.86
2019-04-23T06:18:24.815Z,48.88
2019-04-23T06:20:55.553Z,48.84
2019-04-23T06:23:28.776Z,46.81
2019-04-23T06:26:15.041Z,45.99
2019-04-23T06:28:27.597Z,45.84
2019-04-23T06:33:31.034Z,45.15
2019-04-23T06:36:07.056Z,44.50
2019-04-23T06:38:41.258Z,45.00
2019-04-23T06:41:06.768Z,43.98
2019-04-23T06:43:47.142Z,45.48
2019-04-23T06:46:16.693Z,45.13
2019-04-23T06:48:42.016Z,45.95
2019-04-23T06:51:24.008Z,46.56
2019-04-23T06:53:43.131Z,44.90
2019-04-23T06:56:20.601Z,43.18
2019-04-23T06:59:06.093Z,45.01
2019-04-23T07:01:17.583Z,44.67
2019-04-23T07:03:50.639Z,45.14
2019-04-23T07:11:28.712Z,45.11
2019-04-23T07:16:27.803Z,43.13
2019-04-23T07:19:04.334Z,43.01
2019-04-23T07:21:42.161Z,43.82
2019-04-23T07:26:36.047Z,43.99
2019-04-23T07:29:00.529Z,44.18
2019-04-23T07:31:37.939Z,45.02
2019-04-23T07:36:41.144Z,45.75
2019-04-23T07:39:27.478Z,45.96
2019-04-23T07:42:11.154Z,45.63
2019-04-23T07:47:47.871Z,45.67
2019-04-23T07:50:09.867Z,44.59
2019-04-23T07:52:41.030Z,43.82
2019-04-23T07:55:13.760Z,43.53
2019-04-23T07:57:35.165Z,44.43
2019-04-23T08:00:29.739Z,42.93
2019-04-23T08:05:21.314Z,43.87
2019-04-23T08:07:45.327Z,42.98
2019-04-23T08:10:10.674Z,45.27
2019-04-23T08:12:49.286Z,43.90
2019-04-23T08:15:14.902Z,44.56
2019-04-23T08:17:41.511Z,43.75
2019-04-23T08:20:14.166Z,44.59
2019-04-23T08:22:45.461Z,45.11
2019-04-23T08:25:29.942Z,43.67
2019-04-23T08:27:57.452Z,44.22
2019-04-23T08:30:28.940Z,42.62
2019-04-23T08:32:57.124Z,43.46
2019-04-23T08:35:26.770Z,44.79
2019-04-23T08:38:09.515Z,43.12
2019-04-23T08:40:36.975Z,43.61
2019-04-23T08:43:27.934Z,44.20
2019-04-23T08:45:46.221Z,45.03
2019-04-23T08:48:20.908Z,42.08
2019-04-23T08:51:11.045Z,42.10
2019-04-23T08:58:27.303Z,44.98
2019-04-23T09:03:25.300Z,42.75
2019-04-23T09:06:13.815Z,42.69
2019-04-23T09:08:27.743Z,44.84
2019-04-23T09:11:04.740Z,43.49
2019-04-23T09:13:52.478Z,45.64
2019-04-23T09:16:16.291Z,46.30
2019-04-23T09:21:02.041Z,46.87
2019-04-23T09:26:02.433Z,47.91
2019-04-23T09:31:45.688Z,47.96
2019-04-23T09:34:07.967Z,47.36
2019-04-23T09:36:40.590Z,47.14
2019-04-23T09:39:17.038Z,47.97
2019-04-23T09:41:42.338Z,46.79
2019-04-23T09:49:46.667Z,45.29
2019-04-23T09:52:21.894Z,44.88
2019-04-23T09:55:01.677Z,47.14
2019-04-23T09:57:22.899Z,45.73
2019-04-23T09:59:52.914Z,46.79
2019-04-23T10:02:20.111Z,46.01
2019-04-23T10:04:39.845Z,46.28
2019-04-23T10:07:12.646Z,47.28
2019-04-23T10:09:30.042Z,46.29
2019-04-23T10:12:01.041Z,45.24
2019-04-23T10:14:30.651Z,47.04
2019-04-23T10:17:00.158Z,47.00
2019-04-23T10:19:30.754Z,48.86
2019-04-23T10:22:01.675Z,48.34
2019-04-23T10:24:32.827Z,47.10
2019-04-23T10:27:02.325Z,46.68
2019-04-23T10:29:36.476Z,45.63
2019-04-23T10:32:07.537Z,46.03
2019-04-23T10:34:44.946Z,45.19
2019-04-23T10:37:09.556Z,45.44
2019-04-23T10:39:43.026Z,46.33
2019-04-23T10:42:11.957Z,46.41
2019-04-23T10:44:52.151Z,45.02
2019-04-23T10:48:12.121Z,46.10
2019-04-23T10:53:26.616Z,46.73
2019-04-23T10:58:15.798Z,45.69
2019-04-23T11:03:36.090Z,44.34
2019-04-23T11:06:02.540Z,44.14
2019-04-23T11:08:20.640Z,45.77
2019-04-23T11:10:50.226Z,45.63
2019-04-23T11:16:12.681Z,44.44
2019-04-23T11:18:38.322Z,43.34
2019-04-23T11:21:00.642Z,44.47
2019-04-23T11:23:31.248Z,44.05
2019-04-23T11:26:06.600Z,43.71
2019-04-23T11:28:33.284Z,44.44
2019-04-23T11:31:15.697Z,44.23
2019-04-23T11:33:37.905Z,44.27
2019-04-23T11:36:43.575Z,43.70
2019-04-23T11:41:20.802Z,43.80
2019-04-23T11:43:53.729Z,42.54
2019-04-23T11:46:43.521Z,42.81
2019-04-23T11:49:19.850Z,42.07
2019-04-23T11:51:51.382Z,42.59
2019-04-23T11:56:35.551Z,43.09
2019-04-23T12:04:14.060Z,44.27
2019-04-23T12:07:00.076Z,43.91
2019-04-23T12:09:29.238Z,44.43
2019-04-23T12:17:08.046Z,45.62
2019-04-23T12:23:00.580Z,47.19
2019-04-23T12:24:58.568Z,47.31
2019-04-23T12:27:08.155Z,47.13
2019-04-23T12:32:42.967Z,46.92
2019-04-23T12:40:05.899Z,47.34
2019-04-23T12:42:48.726Z,46.97
2019-04-23T12:55:19.351Z,47.87
2019-04-23T12:57:42.450Z,49.12
2019-04-23T13:00:17.343Z,48.69
2019-04-23T13:02:44.217Z,49.00
2019-04-23T13:05:21.628Z,49.30
2019-04-23T13:10:14.801Z,49.67
2019-04-23T13:15:15.800Z,50.56
2019-04-23T13:20:23.612Z,51.27
2019-04-23T13:22:59.745Z,50.35
2019-04-23T13:25:45.633Z,51.80
2019-04-23T13:30:47.259Z,54.17
2019-04-23T13:33:26.764Z,54.08
2019-04-23T13:35:55.310Z,55.02
2019-04-23T13:38:29.807Z,57.21
2019-04-23T13:40:59.637Z,57.79
2019-04-23T13:43:30.168Z,58.13
2019-04-23T13:48:32.936Z,59.33
2019-04-23T13:51:14.227Z,59.59
2019-04-23T13:55:53.418Z,59.14
2019-04-23T13:58:37.385Z,61.35
2019-04-23T14:03:48.260Z,57.79
2019-04-23T14:08:46.989Z,59.80
2019-04-23T14:11:10.809Z,58.41
2019-04-23T14:13:59.715Z,58.49
2019-04-23T14:16:22.652Z,58.87
2019-04-23T14:21:20.527Z,58.19
2019-04-23T14:24:03.264Z,56.93
2019-04-23T14:29:02.080Z,59.98
2019-04-23T14:31:16.674Z,59.24
2019-04-23T14:34:00.185Z,59.05
2019-04-23T14:44:00.688Z,60.37
2019-04-23T14:54:23.529Z,61.81
2019-04-23T14:56:51.519Z,62.58
2019-04-23T15:04:01.985Z,64.51
2019-04-23T15:06:43.696Z,65.01
2019-04-23T15:09:36.765Z,65.25
2019-04-23T15:11:59.365Z,65.75
2019-04-23T15:14:10.221Z,66.79
2019-04-23T15:16:46.041Z,67.57
2019-04-23T15:24:23.283Z,69.51
2019-04-23T15:27:44.638Z,68.86
2019-04-23T15:29:04.494Z,68.11
2019-04-23T15:31:55.527Z,69.42
2019-04-23T15:42:08.841Z,70.81
2019-04-23T15:44:23.130Z,69.44
2019-04-23T15:47:01.885Z,69.72
2019-04-23T15:52:06.697Z,68.87
2019-04-23T16:01:43.463Z,69.79
2019-04-23T16:04:13.130Z,68.56
2019-04-23T16:06:43.516Z,69.84
2019-04-23T16:09:36.460Z,70.39
2019-04-23T16:12:06.615Z,70.30
2019-04-23T16:14:49.406Z,70.04
2019-04-23T16:17:20.929Z,70.94
2019-04-23T16:22:34.959Z,70.96
2019-04-23T16:25:09.859Z,70.46
2019-04-23T16:27:29.318Z,71.22
2019-04-23T16:30:15.631Z,70.86
2019-04-23T16:32:54.005Z,71.16
2019-04-23T16:35:31.002Z,70.98
2019-04-23T16:38:01.804Z,70.76
2019-04-23T16:43:02.095Z,69.80
2019-04-23T16:45:23.045Z,67.95
2019-04-23T16:47:58.951Z,69.98
2019-04-23T16:50:28.968Z,68.79
2019-04-23T16:53:02.973Z,67.71
2019-04-23T16:55:24.025Z,67.54
2019-04-23T16:58:01.960Z,68.64
2019-04-23T17:00:31.557Z,68.57
2019-04-23T17:03:12.431Z,68.50
2019-04-23T17:08:30.661Z,68.37
2019-04-23T17:10:38.487Z,67.57
2019-04-23T17:13:25.600Z,68.69
2019-04-23T17:15:48.658Z,68.74
2019-04-23T17:18:11.654Z,69.13
2019-04-23T17:20:48.874Z,68.53
2019-04-23T17:23:29.461Z,67.76
2019-04-23T17:25:48.365Z,68.28
2019-04-23T17:28:20.202Z,68.67
2019-04-23T17:39:05.357Z,67.25
2019-04-23T17:44:18.838Z,68.15
2019-04-23T17:46:37.371Z,69.12
2019-04-23T17:49:14.173Z,68.23
2019-04-23T17:51:31.000Z,69.20
2019-04-23T17:54:19.349Z,69.32
2019-04-23T17:59:23.548Z,69.63
2019-04-23T18:01:47.342Z,69.70
2019-04-23T18:04:33.266Z,70.27
2019-04-23T18:09:25.506Z,70.87
2019-04-23T18:11:54.358Z,70.72
2019-04-23T18:14:34.657Z,71.53
2019-04-23T18:19:23.092Z,71.69
2019-04-23T18:22:18.664Z,71.80
2019-04-23T18:25:05.255Z,72.36
2019-04-23T18:27:35.925Z,73.73
2019-04-23T18:30:11.826Z,73.28
2019-04-23T18:32:49.458Z,73.32
2019-04-23T18:35:19.341Z,73.71
2019-04-23T18:37:44.172Z,72.53
2019-04-23T18:40:08.639Z,72.93
2019-04-23T18:42:45.039Z,73.46
2019-04-23T18:45:22.835Z,72.28
2019-04-23T18:47:50.368Z,73.02
2019-04-23T18:50:24.169Z,73.28
2019-04-23T18:55:41.235Z,73.14
2019-04-23T18:57:50.459Z,73.41
2019-04-23T19:00:37.231Z,73.73
2019-04-23T19:03:10.542Z,74.17
2019-04-23T19:06:07.380Z,74.48
2019-04-23T19:11:25.731Z,74.38
2019-04-23T19:13:50.982Z,74.31
2019-04-23T19:16:24.480Z,73.73
2019-04-23T19:18:56.712Z,73.79
2019-04-23T19:26:49.696Z,74.84
2019-04-23T19:28:56.103Z,74.28
2019-04-23T19:31:47.592Z,74.62
2019-04-23T19:39:17.639Z,75.02
2019-04-23T19:44:15.906Z,75.21
2019-04-23T19:46:58.256Z,74.76
2019-04-23T19:49:25.116Z,75.08
2019-04-23T19:54:32.331Z,74.97
2019-04-23T19:56:55.135Z,74.90
2019-04-23T19:59:23.576Z,75.29
2019-04-23T20:04:36.424Z,76.16
2019-04-23T20:12:01.124Z,75.70
2019-04-23T20:14:31.808Z,76.05
2019-04-23T20:17:23.109Z,76.29
2019-04-23T20:19:37.379Z,76.41
2019-04-23T20:22:06.189Z,76.28
2019-04-23T20:24:57.760Z,76.05
2019-04-23T20:29:54.721Z,76.30
2019-04-23T20:34:56.403Z,75.72
2019-04-23T20:37:13.940Z,75.71
2019-04-23T20:39:50.588Z,75.34
2019-04-23T20:44:55.554Z,75.41
2019-04-23T20:47:15.574Z,74.56
2019-04-23T20:49:51.880Z,74.84
2019-04-23T20:52:37.590Z,75.01
2019-04-23T21:05:21.314Z,75.71
2019-04-23T21:07:59.085Z,74.93
2019-04-23T21:15:26.479Z,74.62
2019-04-23T21:17:59.553Z,75.33
2019-04-23T21:20:35.760Z,74.72
2019-04-23T21:25:30.276Z,75.46
2019-04-23T21:28:34.063Z,75.61
2019-04-23T21:39:04.209Z,76.97
2019-04-23T21:46:24.068Z,78.17
2019-04-23T21:49:08.699Z,77.76
2019-04-23T21:51:40.779Z,78.13
2019-04-23T21:53:53.169Z,77.51
2019-04-23T21:56:23.296Z,77.22
2019-04-23T21:58:57.976Z,77.39
2019-04-23T22:01:36.952Z,77.24
2019-04-23T22:04:08.845Z,77.37
2019-04-23T22:11:48.463Z,76.00
2019-04-23T22:16:44.477Z,75.18
2019-04-23T22:21:47.359Z,75.94
2019-04-23T22:24:07.183Z,75.52
2019-04-23T22:29:17.178Z,73.92
2019-04-23T22:31:41.816Z,72.99
2019-04-23T22:36:48.277Z,72.70
2019-04-23T22:41:49.105Z,72.36
2019-04-23T22:49:28.686Z,72.49
2019-04-23T22:52:03.835Z,72.72
2019-04-23T22:54:31.952Z,73.02
2019-04-23T22:56:56.652Z,71.98
2019-04-23T22:59:48.513Z,72.48
2019-04-23T23:02:14.859Z,72.13
2019-04-23T23:04:41.016Z,71.71
2019-04-23T23:09:46.476Z,70.70
2019-04-23T23:12:14.434Z,70.88
2019-04-23T23:14:45.915Z,71.16
2019-04-23T23:17:15.566Z,70.67
2019-04-23T23:19:50.427Z,71.25
2019-04-23T23:22:20.072Z,71.08
2019-04-23T23:24:46.083Z,70.68
2019-04-23T23:27:19.670Z,70.99
2019-04-23T23:30:01.055Z,71.31
2019-04-23T23:32:27.351Z,71.87
2019-04-23T23:37:19.196Z,71.21
2019-04-23T23:40:00.311Z,70.98
2019-04-23T23:42:27.630Z,71.64
2019-04-23T23:45:01.976Z,71.47
2019-04-23T23:47:18.248Z,71.38
2019-04-23T23:50:01.012Z,71.52
2019-04-23T23:52:35.060Z,71.24
2019-04-23T23:55:03.938Z,72.53
